createdAt,value
2023-02-23T00:00:36.498Z,2.42
2023-02-23T00:03:05.735Z,0.95
2023-02-23T00:05:38.410Z,1.15
2023-02-23T00:08:07.984Z,1.90
2023-02-23T00:10:36.738Z,1.85
2023-02-23T00:13:06.301Z,1.67
2023-02-23T00:15:35.150Z,1.00
2023-02-23T00:18:05.960Z,1.20
2023-02-23T00:20:34.705Z,2.00
2023-02-23T00:23:03.295Z,2.00
2023-02-23T00:25:32.428Z,1.02
2023-02-23T00:28:01.102Z,0.85
2023-02-23T00:30:29.727Z,2.13
2023-02-23T00:32:58.359Z,1.58
2023-02-23T00:35:27.015Z,1.55
2023-02-23T00:37:55.576Z,1.17
2023-02-23T00:40:25.454Z,1.45
2023-02-23T00:42:54.306Z,0.88
2023-02-23T00:45:22.953Z,0.70
2023-02-23T00:47:52.345Z,1.80
2023-02-23T00:50:21.134Z,1.80
2023-02-23T00:52:49.834Z,1.48
2023-02-23T00:55:18.437Z,0.98
2023-02-23T00:57:47.031Z,0.75
2023-02-23T01:00:22.034Z,0.75
2023-02-23T01:02:50.873Z,0.65
2023-02-23T01:05:19.450Z,0.90
2023-02-23T01:07:48.701Z,0.75
2023-02-23T01:10:23.553Z,0.98
2023-02-23T01:12:53.706Z,0.70
2023-02-23T01:15:22.884Z,1.20
2023-02-23T01:17:51.617Z,1.40
2023-02-23T01:20:23.273Z,0.98
2023-02-23T01:22:53.299Z,1.15
2023-02-23T01:25:22.028Z,1.38
2023-02-23T01:27:50.688Z,0.63
2023-02-23T01:30:19.468Z,2.45
2023-02-23T01:32:48.175Z,1.20
2023-02-23T01:35:16.867Z,2.28
2023-02-23T01:37:45.912Z,2.45
2023-02-23T01:40:17.996Z,1.80
2023-02-23T01:42:48.438Z,1.05
2023-02-23T01:45:24.038Z,1.65
2023-02-23T01:47:59.063Z,1.40
2023-02-23T01:50:29.222Z,1.10
2023-02-23T01:52:58.388Z,1.30
2023-02-23T01:55:28.260Z,1.48
2023-02-23T01:58:07.951Z,1.13
2023-02-23T02:00:38.119Z,1.05
2023-02-23T02:03:10.320Z,1.30
2023-02-23T02:05:40.300Z,1.23
2023-02-23T02:08:11.846Z,0.65
2023-02-23T02:10:48.000Z,0.95
2023-02-23T02:13:21.960Z,0.70
2023-02-23T02:16:23.130Z,0.95
2023-02-23T02:19:18.267Z,0.95
2023-02-23T02:22:27.008Z,0.70
2023-02-23T02:25:15.047Z,0.85
2023-02-23T02:28:19.269Z,0.55
2023-02-23T02:31:09.347Z,0.50
2023-02-23T02:34:02.684Z,0.68
2023-02-23T02:36:52.773Z,0.80
2023-02-23T02:39:56.583Z,0.55
2023-02-23T02:42:36.365Z,0.50
2023-02-23T02:45:23.549Z,0.95
2023-02-23T02:48:16.609Z,0.40
2023-02-23T02:51:11.402Z,1.27
2023-02-23T02:53:56.037Z,0.50
2023-02-23T02:56:27.653Z,0.40
2023-02-23T02:58:56.723Z,1.55
2023-02-23T03:01:43.841Z,0.70
2023-02-23T03:04:45.243Z,1.02
2023-02-23T03:07:56.834Z,0.68
2023-02-23T03:11:12.273Z,0.60
2023-02-23T03:14:19.080Z,0.63
2023-02-23T03:17:33.369Z,0.40
2023-02-23T03:23:25.483Z,0.50
2023-02-23T03:26:20.590Z,0.45
2023-02-23T03:29:30.598Z,0.60
2023-02-23T03:32:48.736Z,0.55
2023-02-23T03:35:43.623Z,0.50
2023-02-23T03:38:41.386Z,0.63
2023-02-23T03:41:28.899Z,0.50
2023-02-23T03:44:19.578Z,0.50
2023-02-23T03:47:07.626Z,1.02
2023-02-23T03:49:57.061Z,0.57
2023-02-23T03:52:52.199Z,0.73
2023-02-23T03:55:45.797Z,0.50
2023-02-23T03:58:36.061Z,1.02
2023-02-23T04:01:24.546Z,0.50
2023-02-23T04:04:12.711Z,1.10
2023-02-23T04:07:03.152Z,0.88
2023-02-23T04:09:51.280Z,0.50
2023-02-23T04:12:54.569Z,0.65
2023-02-23T04:15:39.644Z,0.95
2023-02-23T04:18:09.339Z,0.40
2023-02-23T04:20:38.056Z,0.50
2023-02-23T04:23:06.742Z,1.25
2023-02-23T04:25:35.524Z,0.90
2023-02-23T04:28:04.886Z,0.98
2023-02-23T04:30:33.654Z,0.85
2023-02-23T04:33:02.497Z,0.93
2023-02-23T04:35:32.818Z,0.55
2023-02-23T04:38:01.468Z,0.40
2023-02-23T04:40:31.011Z,2.28
2023-02-23T04:42:59.645Z,0.60
2023-02-23T04:45:28.799Z,0.50
2023-02-23T04:47:57.719Z,0.60
2023-02-23T04:50:26.436Z,0.63
2023-02-23T04:52:55.086Z,0.60
2023-02-23T04:55:26.016Z,1.42
2023-02-23T04:58:00.484Z,1.45
2023-02-23T05:00:30.763Z,1.40
2023-02-23T05:02:59.524Z,0.80
2023-02-23T05:05:27.590Z,0.95
2023-02-23T05:07:56.430Z,0.60
2023-02-23T05:10:25.766Z,0.50
2023-02-23T05:12:54.836Z,0.82
2023-02-23T05:15:23.765Z,1.02
2023-02-23T05:17:52.367Z,0.95
2023-02-23T05:20:20.601Z,0.90
2023-02-23T05:22:49.909Z,0.63
2023-02-23T05:25:18.541Z,1.10
2023-02-23T05:27:47.200Z,0.47
2023-02-23T05:30:16.116Z,0.60
2023-02-23T05:32:44.887Z,0.50
2023-02-23T05:35:14.284Z,1.00
2023-02-23T05:37:42.975Z,0.50
2023-02-23T05:40:12.073Z,0.63
2023-02-23T05:42:40.722Z,0.70
2023-02-23T05:45:09.894Z,0.73
2023-02-23T05:47:40.040Z,1.25
2023-02-23T05:50:10.318Z,0.50
2023-02-23T05:52:42.805Z,0.68
2023-02-23T05:55:13.576Z,0.80
2023-02-23T05:57:46.840Z,0.85
2023-02-23T06:00:15.842Z,0.82
2023-02-23T06:02:44.485Z,1.67
2023-02-23T06:05:14.916Z,0.50
2023-02-23T06:07:43.592Z,0.65
2023-02-23T06:10:13.118Z,0.70
2023-02-23T06:12:41.913Z,0.70
2023-02-23T06:15:11.400Z,0.70
2023-02-23T06:17:40.039Z,0.95
2023-02-23T06:20:09.180Z,0.40
2023-02-23T06:22:37.825Z,0.93
2023-02-23T06:25:07.676Z,0.50
2023-02-23T06:27:37.309Z,1.60
2023-02-23T06:30:06.278Z,0.90
2023-02-23T06:32:34.957Z,0.50
2023-02-23T06:35:03.687Z,0.55
2023-02-23T06:37:32.256Z,0.70
2023-02-23T06:40:00.851Z,0.40
2023-02-23T06:42:29.448Z,0.52
2023-02-23T06:44:57.974Z,0.60
2023-02-23T06:47:26.861Z,1.02
2023-02-23T06:49:56.023Z,0.65
2023-02-23T06:52:26.345Z,1.02
2023-02-23T06:54:54.900Z,0.98
2023-02-23T06:57:23.519Z,0.50
2023-02-23T06:59:52.152Z,0.40
2023-02-23T07:02:20.807Z,0.50
2023-02-23T07:04:49.878Z,0.47
2023-02-23T07:07:18.556Z,0.63
2023-02-23T07:09:47.168Z,0.47
2023-02-23T07:12:15.792Z,0.40
2023-02-23T07:14:44.368Z,1.70
2023-02-23T07:17:13.133Z,1.23
2023-02-23T07:19:41.754Z,0.50
2023-02-23T07:22:10.310Z,0.60
2023-02-23T07:24:40.005Z,0.70
2023-02-23T07:27:08.652Z,0.98
2023-02-23T07:29:37.278Z,0.70
2023-02-23T07:32:06.224Z,0.88
2023-02-23T07:34:34.928Z,0.55
2023-02-23T07:37:03.577Z,0.80
2023-02-23T07:39:32.372Z,0.60
2023-02-23T07:42:01.038Z,0.47
2023-02-23T07:44:28.966Z,0.40
2023-02-23T07:46:57.693Z,0.40
2023-02-23T07:49:26.784Z,0.90
2023-02-23T07:51:55.351Z,0.40
2023-02-23T07:54:24.831Z,1.25
2023-02-23T07:56:53.975Z,0.65
2023-02-23T07:59:22.784Z,0.70
2023-02-23T08:01:52.282Z,0.68
2023-02-23T08:04:20.994Z,0.60
2023-02-23T08:06:49.635Z,0.47
2023-02-23T08:09:18.353Z,0.60
2023-02-23T08:11:47.027Z,0.73
2023-02-23T08:14:15.611Z,1.15
2023-02-23T08:16:44.277Z,0.40
2023-02-23T08:19:12.986Z,0.70
2023-02-23T08:21:41.669Z,0.50
2023-02-23T08:24:10.591Z,1.08
2023-02-23T08:26:41.848Z,1.00
2023-02-23T08:29:11.003Z,0.52
2023-02-23T08:31:39.732Z,0.52
2023-02-23T08:34:08.489Z,0.57
2023-02-23T08:36:37.568Z,1.02
2023-02-23T08:39:08.844Z,0.50
2023-02-23T08:41:37.478Z,0.40
2023-02-23T08:44:06.320Z,0.40
2023-02-23T08:46:35.457Z,0.50
2023-02-23T08:49:06.047Z,0.80
2023-02-23T08:51:36.395Z,0.80
2023-02-23T08:54:05.142Z,0.50
2023-02-23T08:56:34.143Z,0.43
2023-02-23T08:59:02.820Z,0.40
2023-02-23T09:01:31.872Z,0.80
2023-02-23T09:04:01.633Z,0.50
2023-02-23T09:06:30.199Z,0.70
2023-02-23T09:08:59.244Z,0.50
2023-02-23T09:11:28.350Z,0.50
2023-02-23T09:13:57.089Z,1.02
2023-02-23T09:16:26.015Z,0.52
2023-02-23T09:18:54.863Z,1.45
2023-02-23T09:21:26.570Z,0.45
2023-02-23T09:23:56.770Z,1.27
2023-02-23T09:26:27.696Z,1.08
2023-02-23T09:28:56.817Z,0.60
2023-02-23T09:31:25.939Z,1.08
2023-02-23T09:33:55.650Z,1.30
2023-02-23T09:36:26.852Z,1.33
2023-02-23T09:38:58.479Z,1.98
2023-02-23T09:41:32.828Z,0.80
2023-02-23T09:44:13.986Z,1.80
2023-02-23T09:47:04.260Z,1.25
2023-02-23T09:49:37.039Z,0.60
2023-02-23T09:52:06.398Z,0.80
2023-02-23T09:54:36.369Z,1.65
2023-02-23T09:57:09.012Z,1.73
2023-02-23T09:59:38.051Z,1.70
2023-02-23T10:02:17.626Z,0.57
2023-02-23T10:04:50.380Z,2.22
2023-02-23T10:07:31.754Z,1.02
2023-02-23T10:10:33.932Z,1.45
2023-02-23T10:13:14.452Z,0.60
2023-02-23T10:16:15.533Z,0.82
2023-02-23T10:18:53.096Z,0.75
2023-02-23T10:21:40.363Z,0.82
2023-02-23T10:24:12.041Z,0.80
2023-02-23T10:26:55.777Z,0.90
2023-02-23T10:29:39.182Z,1.85
2023-02-23T10:32:44.598Z,1.70
2023-02-23T10:35:19.570Z,0.70
2023-02-23T10:37:48.977Z,0.80
2023-02-23T10:40:22.157Z,0.95
2023-02-23T10:42:51.965Z,0.95
2023-02-23T10:45:26.464Z,0.90
2023-02-23T10:48:09.174Z,1.42
2023-02-23T10:50:41.332Z,1.30
2023-02-23T10:53:27.765Z,0.93
2023-02-23T10:56:12.331Z,1.20
2023-02-23T10:59:01.217Z,0.70
2023-02-23T11:02:00.801Z,0.70
2023-02-23T11:04:32.400Z,0.98
2023-02-23T11:07:17.824Z,1.23
2023-02-23T11:09:48.310Z,1.92
2023-02-23T11:12:23.428Z,1.00
2023-02-23T11:14:56.004Z,1.92
2023-02-23T11:17:34.339Z,2.75
2023-02-23T11:20:34.747Z,3.20
2023-02-23T11:23:14.643Z,3.80
2023-02-23T11:25:45.870Z,8.52
2023-02-23T11:28:31.491Z,5.47
2023-02-23T11:31:24.705Z,3.80
2023-02-23T11:33:55.887Z,3.13
2023-02-23T11:36:24.513Z,1.92
2023-02-23T11:39:24.810Z,1.83
2023-02-23T11:42:14.435Z,0.60
2023-02-23T11:44:43.686Z,1.48
2023-02-23T11:47:20.791Z,0.85
2023-02-23T11:49:50.091Z,0.90
2023-02-23T11:52:22.517Z,1.13
2023-02-23T11:55:00.221Z,0.82
2023-02-23T11:57:31.799Z,0.85
2023-02-23T12:00:02.283Z,0.75
2023-02-23T12:02:32.449Z,0.60
2023-02-23T12:05:19.444Z,0.50
2023-02-23T12:08:20.252Z,0.70
2023-02-23T12:10:49.772Z,0.95
2023-02-23T12:13:39.473Z,0.43
2023-02-23T12:16:19.346Z,2.30
2023-02-23T12:19:01.384Z,0.43
2023-02-23T12:22:09.421Z,0.40
2023-02-23T12:25:00.684Z,0.70
2023-02-23T12:27:36.797Z,0.80
2023-02-23T12:30:09.140Z,0.45
2023-02-23T12:33:10.984Z,1.00
2023-02-23T12:35:58.344Z,0.60
2023-02-23T12:38:53.197Z,0.50
2023-02-23T12:41:50.812Z,0.50
2023-02-23T12:44:40.785Z,1.13
2023-02-23T12:47:22.136Z,1.38
2023-02-23T12:50:19.355Z,0.60
2023-02-23T12:53:01.069Z,1.00
2023-02-23T12:55:37.766Z,1.30
2023-02-23T12:58:22.585Z,1.88
2023-02-23T13:01:18.173Z,1.00
2023-02-23T13:03:52.699Z,0.75
2023-02-23T13:06:21.277Z,1.75
2023-02-23T13:09:21.887Z,1.20
2023-02-23T13:12:12.772Z,1.33
2023-02-23T13:14:53.447Z,1.52
2023-02-23T13:17:53.733Z,1.00
2023-02-23T13:20:27.591Z,1.98
2023-02-23T13:23:10.878Z,1.35
2023-02-23T13:25:55.439Z,1.05
2023-02-23T13:28:48.390Z,1.10
2023-02-23T13:31:38.487Z,1.00
2023-02-23T13:34:11.314Z,2.30
2023-02-23T13:36:42.171Z,2.58
2023-02-23T13:39:18.616Z,2.17
2023-02-23T13:41:57.820Z,2.08
2023-02-23T13:44:40.267Z,1.60
2023-02-23T13:47:16.293Z,2.72
2023-02-23T13:49:58.378Z,2.10
2023-02-23T13:52:37.098Z,0.88
2023-02-23T13:55:06.673Z,1.30
2023-02-23T13:57:44.980Z,1.33
2023-02-23T14:00:31.822Z,1.77
2023-02-23T14:03:07.035Z,0.80
2023-02-23T14:05:44.931Z,0.80
2023-02-23T14:08:34.564Z,0.52
2023-02-23T14:11:03.730Z,0.98
2023-02-23T14:13:35.340Z,0.73
2023-02-23T14:16:10.059Z,0.65
2023-02-23T14:18:56.771Z,1.15
2023-02-23T14:21:30.387Z,0.68
2023-02-23T14:24:06.505Z,0.77
2023-02-23T14:26:39.411Z,1.00
2023-02-23T14:29:29.974Z,0.65
2023-02-23T14:32:06.001Z,0.90
2023-02-23T14:34:58.495Z,1.60
2023-02-23T14:37:35.740Z,0.50
2023-02-23T14:40:14.527Z,1.08
2023-02-23T14:42:43.636Z,0.88
2023-02-23T14:45:28.288Z,0.70
2023-02-23T14:48:04.702Z,0.90
2023-02-23T14:50:37.341Z,1.23
2023-02-23T14:53:08.381Z,1.95
2023-02-23T14:55:38.026Z,0.98
2023-02-23T14:58:23.185Z,1.25
2023-02-23T15:00:53.408Z,1.27
2023-02-23T15:03:23.708Z,0.73
2023-02-23T15:05:58.123Z,0.70
2023-02-23T15:08:29.687Z,1.05
2023-02-23T15:11:05.682Z,1.02
2023-02-23T15:13:39.832Z,0.82
2023-02-23T15:16:28.822Z,1.10
2023-02-23T15:18:57.606Z,1.13
2023-02-23T15:21:26.320Z,1.48
2023-02-23T15:24:05.478Z,0.98
2023-02-23T15:26:39.513Z,1.40
2023-02-23T15:29:18.535Z,1.77
2023-02-23T15:31:53.564Z,1.00
2023-02-23T15:34:28.152Z,1.90
2023-02-23T15:36:59.461Z,1.10
2023-02-23T15:39:38.830Z,1.25
2023-02-23T15:42:08.403Z,1.13
2023-02-23T15:44:44.837Z,0.93
2023-02-23T15:47:23.487Z,1.45
2023-02-23T15:49:52.239Z,1.50
2023-02-23T15:52:24.191Z,1.90
2023-02-23T15:55:02.923Z,1.77
2023-02-23T15:57:55.227Z,1.33
2023-02-23T16:00:41.075Z,1.45
2023-02-23T16:03:29.269Z,2.15
2023-02-23T16:06:04.566Z,0.80
2023-02-23T16:08:35.933Z,1.70
2023-02-23T16:11:17.466Z,1.08
2023-02-23T16:13:47.034Z,1.50
2023-02-23T16:16:21.218Z,2.42
2023-02-23T16:18:56.060Z,1.17
2023-02-23T16:21:26.361Z,1.45
2023-02-23T16:24:00.752Z,1.20
2023-02-23T16:26:31.667Z,2.88
2023-02-23T16:29:02.670Z,1.80
2023-02-23T16:31:47.085Z,1.52
2023-02-23T16:34:23.234Z,1.63
2023-02-23T16:36:56.173Z,1.60
2023-02-23T16:39:26.801Z,2.35
2023-02-23T16:41:55.388Z,2.83
2023-02-23T16:44:28.417Z,2.45
2023-02-23T16:47:06.072Z,1.75
2023-02-23T16:49:34.650Z,2.55
2023-02-23T16:52:03.743Z,1.77
2023-02-23T16:54:32.394Z,1.70
2023-02-23T16:57:00.401Z,2.00
2023-02-23T16:59:30.200Z,1.58
2023-02-23T17:01:58.816Z,1.60
2023-02-23T17:04:28.441Z,2.58
2023-02-23T17:06:59.436Z,1.38
2023-02-23T17:09:29.785Z,1.63
2023-02-23T17:12:00.670Z,2.13
2023-02-23T17:14:33.874Z,2.53
2023-02-23T17:17:01.996Z,1.42
2023-02-23T17:19:30.662Z,3.35
2023-02-23T17:21:59.284Z,2.08
2023-02-23T17:24:27.908Z,1.73
2023-02-23T17:26:57.046Z,2.30
2023-02-23T17:29:25.981Z,2.38
2023-02-23T17:31:54.687Z,2.50
2023-02-23T17:34:23.429Z,3.08
2023-02-23T17:36:51.973Z,3.30
2023-02-23T17:39:20.757Z,2.85
2023-02-23T17:41:49.578Z,2.28
2023-02-23T17:44:18.110Z,3.30
2023-02-23T17:46:46.921Z,1.90
2023-02-23T17:49:15.640Z,2.38
2023-02-23T17:51:44.252Z,2.92
2023-02-23T17:54:12.905Z,3.15
2023-02-23T17:56:41.508Z,2.70
2023-02-23T17:59:10.095Z,2.28
2023-02-23T18:01:39.071Z,2.08
2023-02-23T18:04:08.527Z,3.72
2023-02-23T18:06:37.307Z,2.60
2023-02-23T18:09:07.474Z,2.20
2023-02-23T18:11:36.860Z,1.15
2023-02-23T18:14:05.480Z,1.42
2023-02-23T18:16:35.881Z,2.65
2023-02-23T18:19:04.792Z,2.35
2023-02-23T18:21:35.965Z,2.05
2023-02-23T18:24:03.947Z,1.88
2023-02-23T18:26:32.544Z,2.03
2023-02-23T18:29:01.240Z,1.27
2023-02-23T18:31:30.064Z,2.35
2023-02-23T18:34:00.799Z,2.60
2023-02-23T18:36:36.517Z,1.80
2023-02-23T18:39:08.277Z,1.80
2023-02-23T18:41:37.125Z,2.78
2023-02-23T18:44:08.265Z,1.65
2023-02-23T18:46:37.507Z,1.77
2023-02-23T18:49:07.419Z,2.10
2023-02-23T18:51:36.049Z,2.20
2023-02-23T18:54:06.420Z,1.60
2023-02-23T18:56:35.176Z,1.40
2023-02-23T18:59:03.858Z,2.13
2023-02-23T19:01:38.950Z,1.48
2023-02-23T19:04:09.948Z,1.70
2023-02-23T19:06:41.924Z,1.90
2023-02-23T19:09:13.662Z,1.23
2023-02-23T19:11:44.178Z,1.25
2023-02-23T19:14:17.160Z,2.40
2023-02-23T19:16:46.802Z,1.60
2023-02-23T19:19:16.144Z,1.77
2023-02-23T19:21:44.761Z,1.30
2023-02-23T19:24:13.358Z,1.50
2023-02-23T19:26:42.188Z,2.15
2023-02-23T19:29:10.786Z,2.17
2023-02-23T19:31:39.565Z,1.77
2023-02-23T19:34:10.078Z,1.40
2023-02-23T19:36:38.691Z,2.05
2023-02-23T19:39:11.747Z,1.92
2023-02-23T19:41:41.302Z,1.83
2023-02-23T19:44:10.648Z,1.60
2023-02-23T19:46:41.054Z,1.52
2023-02-23T19:49:09.884Z,1.10
2023-02-23T19:51:38.509Z,2.33
2023-02-23T19:54:08.823Z,1.83
2023-02-23T19:56:37.418Z,1.90
2023-02-23T19:59:06.531Z,1.60
2023-02-23T20:01:35.378Z,1.88
2023-02-23T20:04:06.833Z,2.17
2023-02-23T20:06:42.415Z,1.83
2023-02-23T20:09:11.557Z,1.70
2023-02-23T20:11:41.924Z,1.65
2023-02-23T20:14:11.079Z,2.20
2023-02-23T20:16:40.254Z,1.38
2023-02-23T20:19:09.069Z,2.40
2023-02-23T20:21:38.103Z,1.50
2023-02-23T20:24:07.038Z,1.48
2023-02-23T20:26:38.253Z,0.93
2023-02-23T20:29:12.584Z,1.70
2023-02-23T20:31:48.257Z,1.00
2023-02-23T20:34:16.932Z,1.88
2023-02-23T20:36:47.014Z,1.20
2023-02-23T20:39:18.197Z,1.23
2023-02-23T20:41:48.949Z,1.35
2023-02-23T20:44:17.987Z,1.88
2023-02-23T20:46:46.579Z,1.63
2023-02-23T20:49:14.830Z,1.58
2023-02-23T20:51:45.440Z,1.70
2023-02-23T20:54:14.298Z,1.58
2023-02-23T20:56:43.322Z,1.05
2023-02-23T20:59:14.167Z,1.80
2023-02-23T21:01:43.864Z,1.75
2023-02-23T21:04:14.294Z,1.70
2023-02-23T21:06:43.330Z,1.38
2023-02-23T21:09:30.181Z,1.70
2023-02-23T21:11:58.938Z,2.40
2023-02-23T21:14:27.574Z,1.52
2023-02-23T21:16:56.167Z,1.60
2023-02-23T21:19:25.119Z,2.42
2023-02-23T21:21:59.330Z,2.45
2023-02-23T21:24:28.366Z,1.67
2023-02-23T21:26:56.969Z,1.70
2023-02-23T21:29:25.585Z,1.40
2023-02-23T21:31:54.449Z,1.90
2023-02-23T21:34:23.141Z,2.35
2023-02-23T21:36:52.586Z,2.20
2023-02-23T21:39:23.012Z,2.20
2023-02-23T21:41:51.678Z,1.90
2023-02-23T21:44:20.358Z,1.38
2023-02-23T21:46:49.299Z,2.40
2023-02-23T21:49:18.399Z,1.80
2023-02-23T21:51:47.232Z,2.25
2023-02-23T21:54:17.166Z,1.48
2023-02-23T21:56:45.978Z,1.95
2023-02-23T21:59:14.699Z,1.98
2023-02-23T22:01:44.765Z,2.42
2023-02-23T22:04:15.693Z,2.30
2023-02-23T22:06:46.157Z,2.10
2023-02-23T22:09:16.945Z,2.60
2023-02-23T22:11:48.195Z,2.20
2023-02-23T22:14:20.006Z,2.40
2023-02-23T22:16:51.092Z,3.40
2023-02-23T22:19:20.340Z,3.17
2023-02-23T22:21:51.989Z,3.05
2023-02-23T22:24:20.735Z,2.67
2023-02-23T22:26:55.578Z,3.30
2023-02-23T22:29:26.002Z,2.38
2023-02-23T22:31:54.858Z,3.33
2023-02-23T22:34:24.062Z,2.20
2023-02-23T22:36:53.008Z,2.97
2023-02-23T22:39:21.713Z,1.95
2023-02-23T22:41:50.924Z,1.95
2023-02-23T22:44:22.727Z,2.40
2023-02-23T22:46:51.612Z,2.28
2023-02-23T22:49:21.113Z,2.50
2023-02-23T22:51:49.881Z,1.80
2023-02-23T22:54:18.773Z,2.30
2023-02-23T22:56:48.309Z,2.20
2023-02-23T22:59:18.868Z,1.08
2023-02-23T23:01:50.002Z,2.85
2023-02-23T23:04:18.839Z,1.70
2023-02-23T23:06:47.673Z,1.60
2023-02-23T23:09:19.535Z,1.48
2023-02-23T23:11:52.112Z,1.50
2023-02-23T23:14:20.987Z,1.83
2023-02-23T23:16:50.522Z,1.65
2023-02-23T23:19:25.028Z,2.13
2023-02-23T23:21:58.432Z,1.05
2023-02-23T23:24:30.189Z,1.30
2023-02-23T23:27:01.497Z,1.77
2023-02-23T23:29:31.930Z,1.35
2023-02-23T23:32:02.352Z,1.65
2023-02-23T23:34:34.836Z,1.60
2023-02-23T23:37:04.103Z,2.72
2023-02-23T23:39:32.819Z,1.63
2023-02-23T23:42:03.218Z,2.03
2023-02-23T23:44:31.876Z,2.60
2023-02-23T23:47:01.071Z,2.13
2023-02-23T23:49:29.710Z,3.17
2023-02-23T23:51:58.408Z,2.08
2023-02-23T23:54:32.319Z,2.25
2023-02-23T23:57:05.114Z,2.13
2023-02-23T23:59:35.295Z,2.78
